Bert Mooney Airport Butte US
ICAO: KBTM
IATA: BTM
Category: Medium
Scheduled Services: Yes

Elevation: 5550 ft
TransAlt. 18000 ft.

Airport Communications:
ASOS:135.175
SALT LAKE CITY CNTR:132.4
GREAT FALLS RDO:122.2
CTAF/UNICOM:123

KBTM Zoom In..

If Map Doesn't Load, Click Here

Runways:

(A) RW 12 length 5100 ft width 75 ft
---- / hdg 113

(B) RW 15 length 9001 ft width 150 ft
ILS 110.90 / hdg 151

(C) RW 30 length 5100 ft width 75 ft
---- / hdg 293

(D) RW 33 length 9001 ft width 150 ft
---- / hdg 331

Location; KBTM
Day. 21 / Time. 12.53 Zulu
* Altimeter: 30.20
* Temperature: -01° c. -30.2°f.
* Wind from: 110° Speed 05 kn.
Dewpoint: -03° c.
Visibility: 10 Statute Miles.
Clouds: Clear (automated report).

KBTM 211253Z AUTO 11005KT 10SM CLR M01/M03 A3020 RMK AO2 SLP218 T10111033


Wind From 110°
Speed 05 kn.

 
 
jpsmedia.com for Web Design worldairports.se 2018   terms of use